Time;durP1;ratioP1;P1;durP2;ratioP2;P2;SDS_P1;SDS_P2;PMS_P1;PMS_P2;Temp;Humidity;BMP_temperature;BMP_pressure;BME280_temperature;BME280_humidity;BME280_pressure;Samples;Min_cycle;Max_cycle;Signal;HPM_P1;HPM_P2
2023/10/25 00:01:07;;;;;;;3.95;0.85;;;7.20;99.90;;;;;;4958385;29;20502;-78
2023/10/25 00:03:34;;;;;;;3.05;0.93;;;7.20;99.90;;;;;;4957267;29;20485;-79
2023/10/25 00:05:59;;;;;;;0.95;0.80;;;7.10;99.90;;;;;;4958648;28;20040;-78
2023/10/25 00:08:25;;;;;;;1.48;1.38;;;6.90;99.90;;;;;;4957312;29;20027;-78
2023/10/25 00:10:50;;;;;;;8.18;1.45;;;7.00;99.90;;;;;;4956297;29;20421;-78
2023/10/25 00:13:16;;;;;;;5.25;1.02;;;7.00;99.90;;;;;;4956960;29;20047;-78
2023/10/25 00:15:42;;;;;;;0.52;0.52;;;6.90;99.90;;;;;;4958763;29;20456;-78
2023/10/25 00:18:07;;;;;;;4.50;0.90;;;6.80;99.90;;;;;;4959121;29;20523;-78
2023/10/25 00:20:33;;;;;;;4.30;0.93;;;6.80;99.90;;;;;;4961327;29;20034;-78
2023/10/25 00:22:58;;;;;;;43.05;1.77;;;6.80;99.90;;;;;;4960631;29;20031;-78
2023/10/25 00:25:25;;;;;;;4.28;1.00;;;6.80;99.90;;;;;;4959919;29;20031;-78
2023/10/25 00:27:51;;;;;;;0.70;0.70;;;6.80;99.90;;;;;;4961194;29;20029;-78
2023/10/25 00:30:17;;;;;;;0.80;0.80;;;6.70;99.90;;;;;;4957201;29;20027;-78
2023/10/25 00:32:42;;;;;;;1.75;0.75;;;6.70;99.90;;;;;;4957017;29;20035;-78
2023/10/25 00:35:09;;;;;;;0.77;0.77;;;6.60;99.90;;;;;;4958005;28;20412;-78
2023/10/25 00:37:35;;;;;;;11.02;1.42;;;6.60;99.90;;;;;;4956404;29;20039;-78
2023/10/25 00:40:00;;;;;;;3.60;0.82;;;6.50;99.90;;;;;;4957654;29;20030;-78
2023/10/25 00:42:26;;;;;;;1.98;0.70;;;6.40;99.90;;;;;;4956336;29;20031;-78
2023/10/25 00:44:51;;;;;;;1.42;0.80;;;6.50;99.90;;;;;;4958111;29;20507;-78
2023/10/25 00:47:17;;;;;;;1.55;1.00;;;6.50;99.90;;;;;;4958841;29;20050;-78
2023/10/25 00:49:43;;;;;;;2.17;0.80;;;6.50;99.90;;;;;;4960013;29;20074;-77
2023/10/25 00:52:09;;;;;;;0.70;0.70;;;6.40;99.90;;;;;;4959855;29;20032;-78
2023/10/25 00:54:36;;;;;;;3.70;1.10;;;6.50;99.90;;;;;;4961178;29;20027;-77
2023/10/25 00:57:03;;;;;;;5.45;1.05;;;6.60;99.90;;;;;;4959270;28;20024;-77
2023/10/25 00:59:30;;;;;;;1.88;1.10;;;6.60;99.90;;;;;;4960672;28;20027;-77
2023/10/25 01:01:58;;;;;;;0.68;0.68;;;6.60;99.90;;;;;;4958764;29;20094;-78
2023/10/25 01:04:23;;;;;;;3.33;0.90;;;6.50;99.90;;;;;;4959296;29;20030;-78
2023/10/25 01:06:51;;;;;;;2.00;0.88;;;6.50;99.90;;;;;;4955281;29;20039;-78
2023/10/25 01:09:16;;;;;;;3.70;1.73;;;6.40;99.90;;;;;;4955428;29;20020;-78
2023/10/25 01:11:42;;;;;;;2.70;1.20;;;6.40;99.90;;;;;;4956349;28;20114;-79
2023/10/25 01:14:08;;;;;;;0.90;0.80;;;6.40;99.90;;;;;;4955341;29;20027;-79
2023/10/25 01:16:33;;;;;;;0.90;0.90;;;6.40;99.90;;;;;;4955121;29;20432;-79
2023/10/25 01:18:59;;;;;;;5.82;1.35;;;6.40;99.90;;;;;;4954628;29;20536;-79
2023/10/25 01:21:25;;;;;;;4.53;0.77;;;6.30;99.90;;;;;;4955885;28;20040;-79
2023/10/25 01:23:53;;;;;;;0.70;0.70;;;6.20;99.90;;;;;;4956140;29;20142;-79
2023/10/25 01:26:19;;;;;;;14.23;3.13;;;6.20;99.90;;;;;;4956060;28;20046;-79
2023/10/25 01:28:45;;;;;;;6.03;3.55;;;6.20;99.90;;;;;;4954784;29;20404;-78
2023/10/25 01:31:10;;;;;;;5.90;2.78;;;6.20;99.90;;;;;;4956125;29;20139;-78
2023/10/25 01:33:36;;;;;;;1.98;0.90;;;6.20;99.90;;;;;;4956060;29;20071;-78
2023/10/25 01:36:02;;;;;;;1.30;1.10;;;6.20;99.90;;;;;;4955812;29;20491;-79
2023/10/25 01:38:27;;;;;;;2.55;0.82;;;6.20;99.90;;;;;;4954399;29;20032;-78
2023/10/25 01:40:53;;;;;;;4.28;0.93;;;6.30;99.90;;;;;;4954233;29;20038;-78
2023/10/25 01:43:19;;;;;;;4.22;1.52;;;6.30;99.90;;;;;;4955784;29;20023;-78
2023/10/25 01:45:44;;;;;;;5.55;1.38;;;6.20;99.90;;;;;;4957036;29;20090;-79
2023/10/25 01:48:10;;;;;;;0.98;0.82;;;6.20;99.90;;;;;;4957161;29;20027;-79
2023/10/25 01:50:36;;;;;;;2.00;0.90;;;6.20;99.90;;;;;;4956378;29;20031;-79
2023/10/25 01:53:01;;;;;;;6.15;0.73;;;6.20;99.90;;;;;;4955676;28;20051;-78
2023/10/25 01:55:27;;;;;;;0.70;0.70;;;6.30;99.90;;;;;;4955722;29;20034;-78
2023/10/25 01:57:53;;;;;;;0.90;0.90;;;6.20;99.90;;;;;;4954403;29;20464;-78
2023/10/25 02:00:18;;;;;;;0.90;0.90;;;6.30;99.90;;;;;;4954265;29;20034;-78
2023/10/25 02:02:44;;;;;;;1.92;1.13;;;6.20;99.90;;;;;;4954369;29;20024;-78
2023/10/25 02:05:10;;;;;;;0.70;0.70;;;6.20;99.90;;;;;;4955498;29;20031;-78
2023/10/25 02:07:35;;;;;;;2.15;1.33;;;6.10;99.90;;;;;;4954340;29;20039;-78
2023/10/25 02:10:01;;;;;;;5.28;1.00;;;6.10;99.90;;;;;;4956785;28;20475;-78
2023/10/25 02:12:27;;;;;;;2.85;0.60;;;6.00;99.90;;;;;;4959611;28;20519;-79
2023/10/25 02:14:53;;;;;;;2.47;0.80;;;6.00;99.90;;;;;;4958294;29;20023;-79
2023/10/25 02:17:18;;;;;;;0.98;0.98;;;6.00;99.90;;;;;;4958002;29;20055;-78
2023/10/25 02:19:45;;;;;;;0.68;0.50;;;5.70;99.90;;;;;;4959442;28;20488;-78
2023/10/25 02:22:11;;;;;;;0.80;0.75;;;5.70;99.90;;;;;;4958384;29;20059;-78
2023/10/25 02:24:37;;;;;;;1.05;0.88;;;5.80;99.90;;;;;;4960097;28;20031;-78
2023/10/25 02:27:03;;;;;;;3.13;0.63;;;5.70;99.90;;;;;;4957872;29;20090;-78
2023/10/25 02:29:28;;;;;;;0.82;0.80;;;5.70;99.90;;;;;;4959710;28;20033;-78
2023/10/25 02:31:54;;;;;;;1.13;0.70;;;5.80;99.90;;;;;;4961107;29;20078;-78
2023/10/25 02:34:20;;;;;;;0.70;0.70;;;5.80;99.90;;;;;;4958718;29;20019;-79
2023/10/25 02:36:45;;;;;;;1.20;0.80;;;5.60;99.90;;;;;;4957979;29;20548;-78
2023/10/25 02:39:11;;;;;;;1.88;0.73;;;5.50;99.90;;;;;;4958032;29;20031;-77
2023/10/25 02:41:37;;;;;;;5.15;0.77;;;5.30;99.90;;;;;;4957892;29;20028;-78
2023/10/25 02:44:03;;;;;;;6.32;1.55;;;5.20;99.90;;;;;;4958016;29;20023;-79
2023/10/25 02:46:29;;;;;;;39.95;1.70;;;5.20;99.90;;;;;;4957975;29;20042;-78
2023/10/25 02:48:54;;;;;;;18.70;1.58;;;5.20;99.90;;;;;;4957924;29;20035;-79
2023/10/25 02:51:20;;;;;;;0.70;0.70;;;5.30;99.90;;;;;;4959951;29;20154;-80
2023/10/25 02:53:45;;;;;;;3.92;1.33;;;5.30;99.90;;;;;;4958928;29;20028;-79
2023/10/25 02:56:11;;;;;;;0.60;0.60;;;5.30;99.90;;;;;;4961857;29;20071;-79
2023/10/25 02:58:37;;;;;;;0.73;0.73;;;5.30;99.90;;;;;;4961653;29;20023;-79
2023/10/25 03:01:03;;;;;;;2.70;0.73;;;5.50;99.90;;;;;;4961531;29;20082;-79
2023/10/25 03:03:30;;;;;;;1.77;0.80;;;5.40;99.90;;;;;;4960964;29;20062;-79
2023/10/25 03:05:56;;;;;;;3.92;1.05;;;5.20;99.90;;;;;;4958942;29;20043;-78
2023/10/25 03:08:23;;;;;;;1.83;0.77;;;5.30;99.90;;;;;;4958226;29;20024;-78
2023/10/25 03:10:49;;;;;;;1.15;0.85;;;5.40;99.90;;;;;;4957328;29;20047;-78
2023/10/25 03:13:14;;;;;;;0.80;0.75;;;5.40;99.90;;;;;;4957360;29;20055;-79
2023/10/25 03:15:40;;;;;;;1.00;0.90;;;5.50;99.90;;;;;;4958332;29;20024;-78
2023/10/25 03:18:07;;;;;;;3.42;0.50;;;5.40;99.90;;;;;;4957735;29;20059;-79
2023/10/25 03:20:33;;;;;;;1.70;0.45;;;5.30;99.90;;;;;;4957635;28;20034;-79
2023/10/25 03:22:59;;;;;;;2.22;0.73;;;5.10;99.90;;;;;;4957682;29;20023;-78
2023/10/25 03:25:25;;;;;;;2.88;0.90;;;5.20;99.90;;;;;;4957845;29;20114;-78
2023/10/25 03:27:52;;;;;;;2.67;1.13;;;5.60;99.90;;;;;;4957520;29;20114;-79
2023/10/25 03:30:18;;;;;;;2.17;0.80;;;5.20;99.90;;;;;;4958696;29;20023;-78
2023/10/25 03:32:44;;;;;;;5.32;0.63;;;5.20;99.90;;;;;;4957468;29;20031;-78
2023/10/25 03:35:10;;;;;;;2.75;0.93;;;5.10;99.90;;;;;;4957579;29;20396;-78
2023/10/25 03:37:39;;;;;;;3.20;1.00;;;5.00;99.90;;;;;;4957366;29;20041;-78
2023/10/25 03:40:10;;;;;;;0.85;0.52;;;5.00;99.90;;;;;;4957506;29;20031;-78
2023/10/25 03:42:36;;;;;;;0.60;0.60;;;4.90;99.90;;;;;;4957176;29;20041;-78
2023/10/25 03:45:02;;;;;;;2.53;0.88;;;4.90;99.90;;;;;;4957536;29;20424;-78
2023/10/25 03:47:28;;;;;;;2.60;1.35;;;4.90;99.90;;;;;;4957141;29;20498;-78
2023/10/25 03:49:54;;;;;;;1.63;1.42;;;4.80;99.90;;;;;;4957312;29;20027;-79
2023/10/25 03:52:19;;;;;;;3.03;1.48;;;4.80;99.90;;;;;;4957051;29;20023;-79
2023/10/25 03:54:45;;;;;;;1.52;1.42;;;4.90;99.90;;;;;;4956870;29;20051;-78
2023/10/25 03:57:11;;;;;;;1.23;1.20;;;4.90;99.90;;;;;;4956821;29;20469;-78
2023/10/25 03:59:36;;;;;;;10.63;1.17;;;5.00;99.90;;;;;;4957806;29;20031;-78
2023/10/25 04:02:02;;;;;;;2.65;1.17;;;4.90;99.90;;;;;;4956618;29;20023;-79
2023/10/25 04:04:28;;;;;;;1.85;1.00;;;4.90;99.90;;;;;;4956321;29;20027;-79
2023/10/25 04:06:53;;;;;;;4.28;2.10;;;5.20;99.90;;;;;;4956807;29;20403;-79
2023/10/25 04:09:19;;;;;;;14.23;1.55;;;5.00;99.90;;;;;;4956791;29;20468;-79
2023/10/25 04:11:45;;;;;;;3.90;0.80;;;5.00;99.90;;;;;;4956501;29;20024;-79
2023/10/25 04:14:10;;;;;;;9.73;1.10;;;4.90;99.90;;;;;;4958116;29;20027;-79
2023/10/25 04:16:36;;;;;;;27.35;1.98;;;4.80;99.90;;;;;;4956593;29;20031;-79
2023/10/25 04:19:02;;;;;;;2.13;0.98;;;4.80;99.90;;;;;;4956594;29;20130;-78
2023/10/25 04:21:28;;;;;;;13.07;1.80;;;4.80;99.90;;;;;;4957747;29;20070;-79
2023/10/25 04:23:53;;;;;;;14.10;2.13;;;4.90;99.90;;;;;;4957750;29;20070;-80
2023/10/25 04:26:19;;;;;;;6.05;2.08;;;5.10;99.90;;;;;;4957987;29;20035;-79
2023/10/25 04:28:45;;;;;;;9.07;1.77;;;5.20;99.90;;;;;;4956379;29;20457;-78
2023/10/25 04:31:11;;;;;;;10.80;2.25;;;5.30;99.90;;;;;;4956310;28;20031;-79
2023/10/25 04:33:37;;;;;;;3.15;1.52;;;5.10;99.90;;;;;;4955870;29;20023;-79
2023/10/25 04:36:04;;;;;;;3.13;1.10;;;5.20;99.90;;;;;;4957245;29;20062;-79
2023/10/25 04:38:30;;;;;;;6.05;1.20;;;5.20;99.90;;;;;;4956197;29;20023;-78
2023/10/25 04:40:56;;;;;;;4.93;1.60;;;5.40;99.90;;;;;;4956062;29;20027;-78
2023/10/25 04:43:22;;;;;;;1.58;1.48;;;5.50;99.90;;;;;;4955963;29;20030;-78
2023/10/25 04:45:48;;;;;;;5.18;1.10;;;5.50;99.90;;;;;;4955813;29;20034;-78
2023/10/25 04:48:14;;;;;;;2.15;1.30;;;5.40;99.90;;;;;;4957503;28;20027;-78
2023/10/25 04:50:40;;;;;;;1.83;1.55;;;5.50;99.90;;;;;;4956290;29;20031;-79
2023/10/25 04:53:06;;;;;;;37.53;2.40;;;5.60;99.90;;;;;;4958418;28;20033;-79
2023/10/25 04:55:34;;;;;;;13.45;1.80;;;5.60;99.90;;;;;;4957407;29;20037;-78
2023/10/25 04:58:00;;;;;;;1.50;1.40;;;5.60;99.90;;;;;;4958056;28;20026;-78
2023/10/25 05:00:27;;;;;;;3.97;2.05;;;5.70;99.90;;;;;;4955556;29;20055;-78
2023/10/25 05:02:54;;;;;;;1.95;1.63;;;5.80;99.90;;;;;;4957415;28;20391;-79
2023/10/25 05:05:20;;;;;;;1.23;1.13;;;5.80;99.90;;;;;;4956388;29;20027;-79
2023/10/25 05:07:46;;;;;;;4.35;1.55;;;5.90;99.90;;;;;;4955272;29;20461;-78
2023/10/25 05:10:12;;;;;;;1.40;1.30;;;5.90;99.90;;;;;;4956806;28;20357;-78
2023/10/25 05:12:44;;;;;;;2.00;1.45;;;6.00;99.90;;;;;;4955297;29;20085;-79
2023/10/25 05:15:13;;;;;;;3.65;1.30;;;6.10;99.90;;;;;;4955621;29;20027;-78
2023/10/25 05:17:40;;;;;;;3.90;1.33;;;6.10;99.90;;;;;;4955101;29;20522;-79
2023/10/25 05:20:07;;;;;;;1.50;1.40;;;6.10;99.90;;;;;;4954960;29;20121;-79
2023/10/25 05:22:52;;;;;;;1.27;1.20;;;6.10;99.90;;;;;;4955165;29;20035;-79
2023/10/25 05:25:19;;;;;;;1.42;1.20;;;6.10;99.90;;;;;;4955995;28;20027;-79
2023/10/25 05:27:45;;;;;;;1.67;1.40;;;6.20;99.90;;;;;;4954838;29;20058;-78
2023/10/25 05:30:14;;;;;;;2.78;1.95;;;6.30;99.90;;;;;;4956321;28;20035;-78
2023/10/25 05:32:45;;;;;;;1.20;1.20;;;6.30;99.90;;;;;;4956533;28;20034;-79
2023/10/25 05:35:12;;;;;;;1.63;1.13;;;6.30;99.90;;;;;;4955457;29;20054;-78
2023/10/25 05:37:38;;;;;;;2.05;1.90;;;6.40;99.90;;;;;;4955720;29;20027;-78
2023/10/25 05:40:04;;;;;;;3.53;2.38;;;6.40;99.90;;;;;;4954921;29;20023;-78
2023/10/25 05:42:36;;;;;;;3.53;2.42;;;6.50;99.90;;;;;;4955164;29;20436;-78
2023/10/25 05:45:02;;;;;;;4.40;2.63;;;6.60;99.90;;;;;;4954856;29;20023;-80
2023/10/25 05:47:28;;;;;;;3.70;2.60;;;6.80;99.90;;;;;;4956773;28;20042;-78
2023/10/25 05:49:54;;;;;;;2.80;2.22;;;6.90;99.90;;;;;;4956890;29;20023;-79
2023/10/25 05:52:20;;;;;;;4.13;3.45;;;7.00;99.90;;;;;;4956356;29;20031;-78
2023/10/25 05:54:46;;;;;;;3.47;2.65;;;7.00;99.90;;;;;;4954877;29;20027;-79
2023/10/25 05:57:13;;;;;;;4.32;3.05;;;7.10;99.90;;;;;;4956873;28;20036;-79
2023/10/25 05:59:42;;;;;;;4.10;3.42;;;7.20;99.90;;;;;;4956718;29;20034;-79
2023/10/25 06:02:22;;;;;;;3.67;2.90;;;7.30;99.90;;;;;;4957639;29;20031;-79
2023/10/25 06:04:49;;;;;;;4.53;2.92;;;7.40;99.90;;;;;;4956588;29;20400;-79
2023/10/25 06:07:15;;;;;;;3.53;3.03;;;7.50;99.90;;;;;;4959748;28;20431;-79
2023/10/25 06:09:41;;;;;;;4.82;3.47;;;7.50;99.90;;;;;;4958183;29;20023;-78
2023/10/25 06:12:08;;;;;;;5.75;2.55;;;7.60;99.90;;;;;;4955925;29;20038;-78
2023/10/25 06:14:34;;;;;;;3.72;2.70;;;7.60;99.90;;;;;;4954696;29;20023;-78
2023/10/25 06:17:00;;;;;;;6.50;3.38;;;7.60;99.90;;;;;;4955786;28;20038;-79
2023/10/25 06:19:26;;;;;;;7.95;2.55;;;7.70;99.90;;;;;;4954829;29;20031;-78
2023/10/25 06:21:53;;;;;;;3.47;2.65;;;7.70;99.90;;;;;;4957522;29;20019;-79
2023/10/25 06:24:18;;;;;;;3.63;2.45;;;7.60;99.90;;;;;;4959063;28;20032;-78
2023/10/25 06:26:44;;;;;;;3.00;2.50;;;7.70;99.90;;;;;;4958939;28;20504;-78
2023/10/25 06:29:10;;;;;;;3.03;1.95;;;7.80;99.90;;;;;;4957270;29;20023;-79
2023/10/25 06:31:35;;;;;;;3.63;2.20;;;7.90;99.90;;;;;;4958047;29;20038;-78
2023/10/25 06:34:01;;;;;;;5.65;2.95;;;7.90;99.90;;;;;;4957922;29;20058;-78
2023/10/25 06:36:27;;;;;;;3.13;2.58;;;7.90;99.90;;;;;;4959961;29;20104;-77
2023/10/25 06:38:53;;;;;;;2.97;2.03;;;8.00;99.90;;;;;;4958109;29;20031;-79
2023/10/25 06:41:22;;;;;;;2.95;2.50;;;8.10;99.90;;;;;;4957437;29;20023;-78
2023/10/25 06:43:48;;;;;;;3.60;2.60;;;8.10;99.90;;;;;;4958810;28;20024;-78
2023/10/25 06:46:14;;;;;;;4.50;2.45;;;8.20;99.90;;;;;;4957657;28;20130;-79
2023/10/25 06:48:40;;;;;;;4.97;2.83;;;8.20;99.90;;;;;;4958125;29;20047;-79
2023/10/25 06:51:07;;;;;;;5.55;3.33;;;8.20;99.90;;;;;;4956357;29;20487;-78
2023/10/25 06:53:33;;;;;;;3.03;2.38;;;8.40;99.90;;;;;;4957145;29;20519;-78
2023/10/25 06:55:59;;;;;;;3.15;2.50;;;8.50;99.90;;;;;;4959280;28;20031;-79
2023/10/25 06:58:26;;;;;;;3.10;2.22;;;8.50;99.90;;;;;;4959153;29;20559;-79
2023/10/25 07:00:55;;;;;;;4.75;2.70;;;8.60;99.90;;;;;;4961796;28;20031;-77
2023/10/25 07:03:36;;;;;;;2.85;2.65;;;8.70;99.90;;;;;;4960897;28;20034;-79
2023/10/25 07:06:04;;;;;;;5.00;2.50;;;8.70;99.90;;;;;;4959887;28;20067;-79
2023/10/25 07:08:33;;;;;;;3.28;2.35;;;8.70;99.90;;;;;;4959961;29;20030;-78
2023/10/25 07:10:59;;;;;;;4.05;2.53;;;8.80;99.90;;;;;;4961814;29;20122;-78
2023/10/25 07:13:26;;;;;;;4.32;2.13;;;8.90;99.90;;;;;;4962074;29;20034;-79
2023/10/25 07:15:52;;;;;;;2.90;2.45;;;8.90;99.90;;;;;;4963819;28;20035;-78
2023/10/25 07:18:18;;;;;;;3.63;2.25;;;9.00;99.90;;;;;;4962530;28;20063;-79
2023/10/25 07:20:44;;;;;;;3.08;2.20;;;9.10;99.90;;;;;;4961201;29;20019;-79
2023/10/25 07:23:09;;;;;;;2.85;2.17;;;9.20;99.90;;;;;;4961326;29;20035;-79
2023/10/25 07:25:38;;;;;;;2.80;2.30;;;9.30;99.90;;;;;;4960812;29;20463;-79
2023/10/25 07:28:04;;;;;;;8.43;2.73;;;9.50;99.90;;;;;;4961490;29;20110;-78
2023/10/25 07:30:33;;;;;;;3.22;2.03;;;9.70;99.90;;;;;;4963854;28;20023;-79
2023/10/25 07:32:59;;;;;;;3.42;2.40;;;9.80;99.90;;;;;;4962319;29;20030;-79
2023/10/25 07:35:25;;;;;;;2.92;2.72;;;9.80;99.90;;;;;;4963548;29;20023;-78
2023/10/25 07:37:50;;;;;;;2.72;2.00;;;10.00;99.90;;;;;;4966050;29;20043;-77
2023/10/25 07:40:16;;;;;;;3.20;2.67;;;10.10;99.90;;;;;;4964908;29;20123;-77
2023/10/25 07:42:42;;;;;;;5.80;2.60;;;10.30;99.90;;;;;;4965547;28;20106;-77
2023/10/25 07:45:08;;;;;;;5.90;3.45;;;10.30;99.90;;;;;;4961614;29;20023;-78
2023/10/25 07:47:33;;;;;;;13.27;5.50;;;10.20;99.90;;;;;;4956792;29;20039;-78
2023/10/25 07:49:59;;;;;;;5.05;4.07;;;10.30;99.90;;;;;;4956863;29;20034;-79
2023/10/25 07:52:27;;;;;;;7.97;4.50;;;10.50;99.90;;;;;;4956960;29;20369;-79
2023/10/25 07:54:53;;;;;;;9.02;5.50;;;10.50;99.90;;;;;;4956698;29;20026;-77
2023/10/25 07:57:19;;;;;;;7.40;4.85;;;10.50;99.90;;;;;;4958263;28;20500;-79
2023/10/25 07:59:45;;;;;;;7.65;5.65;;;10.80;99.90;;;;;;4957449;29;20059;-79
2023/10/25 08:02:10;;;;;;;9.13;5.70;;;10.90;99.90;;;;;;4959528;28;20027;-78
2023/10/25 08:04:36;;;;;;;7.85;4.78;;;11.20;99.90;;;;;;4957342;29;20066;-78
2023/10/25 08:07:02;;;;;;;8.82;5.07;;;11.30;99.90;;;;;;4956683;28;20044;-78
2023/10/25 08:09:28;;;;;;;7.88;4.72;;;11.40;99.90;;;;;;4958177;29;20380;-78
2023/10/25 08:11:53;;;;;;;9.18;4.38;;;11.40;99.90;;;;;;4957392;29;20037;-79
2023/10/25 08:14:19;;;;;;;5.32;4.57;;;11.50;99.90;;;;;;4958370;29;20027;-79
2023/10/25 08:16:45;;;;;;;8.30;4.40;;;11.60;99.90;;;;;;4957232;29;20032;-78
2023/10/25 08:19:11;;;;;;;8.05;4.63;;;11.70;99.90;;;;;;4957925;29;20134;-78
2023/10/25 08:21:37;;;;;;;7.70;4.82;;;11.60;99.90;;;;;;4958720;29;20499;-79
2023/10/25 08:24:07;;;;;;;8.45;4.63;;;11.60;99.90;;;;;;4958983;29;20023;-79
2023/10/25 08:26:39;;;;;;;6.05;4.53;;;11.50;99.90;;;;;;4960272;28;20046;-78
2023/10/25 08:29:06;;;;;;;9.15;4.25;;;11.50;99.90;;;;;;4958668;29;20038;-78
2023/10/25 08:31:35;;;;;;;8.20;5.20;;;11.40;99.90;;;;;;4958284;29;20027;-78
2023/10/25 08:34:01;;;;;;;5.57;4.38;;;11.40;99.90;;;;;;4958849;28;20365;-79
2023/10/25 08:36:31;;;;;;;5.57;4.70;;;11.50;99.90;;;;;;4957408;29;20035;-79
2023/10/25 08:38:56;;;;;;;;;;;11.50;99.90;;;;;;4958724;29;20086;-78
2023/10/25 08:41:25;;;;;;;6.40;5.68;;;11.70;99.90;;;;;;4961260;28;19946;-79
2023/10/25 08:43:51;;;;;;;5.60;5.05;;;11.70;99.90;;;;;;4959634;29;20524;-78
2023/10/25 08:46:18;;;;;;;11.40;4.78;;;11.90;99.90;;;;;;4943576;29;20078;-78
2023/10/25 08:48:44;;;;;;;7.22;4.93;;;12.00;99.90;;;;;;4960333;28;20055;-78
2023/10/25 08:51:13;;;;;;;6.50;4.35;;;12.10;99.90;;;;;;4960947;29;20027;-78
2023/10/25 08:53:40;;;;;;;5.43;3.92;;;12.10;99.90;;;;;;4959625;29;20023;-78
2023/10/25 08:56:07;;;;;;;8.40;5.80;;;12.20;99.90;;;;;;4958662;29;20023;-78
2023/10/25 08:58:33;;;;;;;6.78;5.25;;;12.40;99.90;;;;;;4960897;28;20033;-78
2023/10/25 09:00:58;;;;;;;6.32;4.70;;;12.50;99.90;;;;;;4958789;29;20019;-78
2023/10/25 09:03:30;;;;;;;7.22;4.72;;;12.50;99.90;;;;;;4959459;29;20050;-78
2023/10/25 09:05:57;;;;;;;8.20;4.30;;;12.50;99.90;;;;;;4960083;29;20630;-78
2023/10/25 09:08:24;;;;;;;7.95;5.78;;;12.40;99.90;;;;;;4961642;28;20030;-77
2023/10/25 09:11:01;;;;;;;14.15;7.95;;;12.50;99.90;;;;;;4962041;28;20047;-78
2023/10/25 09:13:27;;;;;;;21.63;11.30;;;12.40;99.90;;;;;;4959924;29;20030;-78
2023/10/25 09:16:12;;;;;;;10.90;7.38;;;12.40;99.90;;;;;;4961505;28;20556;-78
2023/10/25 09:18:39;;;;;;;12.95;7.82;;;12.40;99.90;;;;;;4960169;28;20126;-78
2023/10/25 09:21:07;;;;;;;16.55;10.02;;;12.40;99.90;;;;;;4963303;28;20046;-76
2023/10/25 09:23:34;;;;;;;10.52;6.43;;;12.60;99.90;;;;;;4962374;28;20047;-77
2023/10/25 09:26:04;;;;;;;11.80;7.97;;;12.80;99.90;;;;;;4959414;28;20065;-77
2023/10/25 09:28:30;;;;;;;17.15;9.57;;;12.90;99.90;;;;;;4955833;29;20036;-78
2023/10/25 09:30:58;;;;;;;10.55;6.88;;;13.10;99.90;;;;;;4954316;29;20542;-78
2023/10/25 09:33:25;;;;;;;13.30;7.95;;;13.20;99.90;;;;;;4954315;29;20023;-79
2023/10/25 09:35:52;;;;;;;4.70;2.80;;;13.10;99.90;;;;;;4956262;28;20027;-78
2023/10/25 09:38:17;;;;;;;1.25;0.73;;;13.10;99.90;;;;;;4956081;29;20028;-76
2023/10/25 09:40:45;;;;;;;0.20;0.20;;;13.50;99.90;;;;;;4965094;29;20047;-77
2023/10/25 09:43:24;;;;;;;0.20;0.20;;;14.00;99.90;;;;;;4970532;29;20030;-76
2023/10/25 09:45:54;;;;;;;0.40;0.40;;;14.40;99.90;;;;;;4969983;28;20027;-80
2023/10/25 09:48:21;;;;;;;0.25;0.25;;;14.70;99.90;;;;;;4973966;29;20222;-77
2023/10/25 09:51:31;;;;;;;1.60;0.93;;;15.10;99.90;;;;;;4978455;28;20031;-81
2023/10/25 09:54:12;;;;;;;0.68;0.30;;;15.40;99.90;;;;;;4979936;28;20027;-79
2023/10/25 09:56:42;;;;;;;0.25;0.20;;;15.60;99.90;;;;;;4974531;29;20126;-82
2023/10/25 09:59:11;;;;;;;0.52;0.30;;;15.80;99.90;;;;;;4973582;29;20319;-78
2023/10/25 10:01:38;;;;;;;0.82;0.82;;;16.00;99.90;;;;;;4965204;29;20030;-78
2023/10/25 10:04:28;;;;;;;1.40;0.52;;;16.30;99.90;;;;;;4970903;28;20071;-76
2023/10/25 10:07:15;;;;;;;1.60;0.20;;;16.40;99.90;;;;;;4968682;28;20070;-78
2023/10/25 10:09:54;;;;;;;0.20;0.13;;;16.60;99.90;;;;;;4966306;29;20054;-78
2023/10/25 10:12:20;;;;;;;0.10;0.10;;;16.80;99.90;;;;;;4966427;29;20070;-79
2023/10/25 10:14:47;;;;;;;0.80;0.20;;;16.90;99.90;;;;;;4966295;29;20255;-77
2023/10/25 10:17:15;;;;;;;0.13;0.13;;;17.20;99.90;;;;;;4966142;28;20026;-78
2023/10/25 10:19:42;;;;;;;0.00;0.00;;;17.40;99.90;;;;;;4966072;28;20035;-78
2023/10/25 10:22:13;;;;;;;0.10;0.10;;;17.70;99.90;;;;;;4965068;29;20027;-77
2023/10/25 10:25:03;;;;;;;1.48;0.10;;;17.70;99.90;;;;;;4967475;29;20227;-76
2023/10/25 10:27:41;;;;;;;0.10;0.10;;;17.70;99.90;;;;;;4964842;29;20320;-79
2023/10/25 10:30:40;;;;;;;0.60;0.10;;;17.80;99.90;;;;;;4967775;28;20315;-75
2023/10/25 10:33:35;;;;;;;0.93;0.10;;;17.70;99.90;;;;;;4969620;29;20023;-77
2023/10/25 10:36:01;;;;;;;0.45;0.10;;;17.80;99.90;;;;;;4970020;28;20078;-78
2023/10/25 10:38:49;;;;;;;0.40;0.03;;;17.80;99.90;;;;;;4975073;28;20015;-76
2023/10/25 10:41:27;;;;;;;0.38;0.10;;;17.70;99.90;;;;;;4962144;29;20027;-77
2023/10/25 10:43:54;;;;;;;0.10;0.10;;;17.40;99.90;;;;;;4968801;29;20059;-78
2023/10/25 10:46:20;;;;;;;0.10;0.10;;;17.20;99.90;;;;;;4971647;28;20130;-79
2023/10/25 10:48:50;;;;;;;0.25;0.10;;;17.10;99.90;;;;;;4970146;29;20331;-78
2023/10/25 10:51:17;;;;;;;0.08;0.08;;;17.00;99.90;;;;;;4971939;28;20027;-78
2023/10/25 10:53:44;;;;;;;0.57;0.10;;;16.90;99.90;;;;;;4971632;28;20022;-79
2023/10/25 10:56:09;;;;;;;0.35;0.10;;;16.80;99.90;;;;;;4970956;29;20399;-78
2023/10/25 10:58:35;;;;;;;0.10;0.10;;;16.70;99.90;;;;;;4971147;29;20027;-79
2023/10/25 11:01:01;;;;;;;0.10;0.10;;;16.60;99.90;;;;;;4977956;29;20034;-76
2023/10/25 11:03:28;;;;;;;0.30;0.10;;;16.60;99.90;;;;;;4980629;28;20023;-76
2023/10/25 11:05:58;;;;;;;0.20;0.13;;;16.50;99.90;;;;;;4979991;29;20051;-76
2023/10/25 11:09:04;;;;;;;1.35;0.20;;;16.50;99.90;;;;;;4980308;28;20027;-77
2023/10/25 11:11:29;;;;;;;0.15;0.15;;;16.60;99.90;;;;;;4968622;29;20087;-76
2023/10/25 11:14:15;;;;;;;0.10;0.10;;;16.70;99.90;;;;;;4971849;29;20027;-78
2023/10/25 11:16:41;;;;;;;0.03;0.03;;;16.80;99.90;;;;;;4968728;29;20034;-77
2023/10/25 11:19:08;;;;;;;0.15;0.10;;;16.90;99.90;;;;;;4967982;29;20146;-78
2023/10/25 11:21:34;;;;;;;0.10;0.10;;;17.10;99.90;;;;;;4968643;28;20090;-78
2023/10/25 11:24:04;;;;;;;0.10;0.10;;;17.10;99.90;;;;;;4968555;29;20215;-78
2023/10/25 11:26:29;;;;;;;0.30;0.17;;;17.20;99.90;;;;;;4965998;29;20031;-78
2023/10/25 11:28:55;;;;;;;0.45;0.10;;;17.30;99.90;;;;;;4961819;29;20055;-79
2023/10/25 11:31:22;;;;;;;0.38;0.13;;;17.30;99.90;;;;;;4963346;29;20062;-79
2023/10/25 11:33:48;;;;;;;0.05;0.00;;;17.20;99.90;;;;;;4958777;29;20386;-78
2023/10/25 11:36:14;;;;;;;2.05;0.10;;;17.20;99.90;;;;;;4957874;29;20484;-79
2023/10/25 11:38:44;;;;;;;0.60;0.10;;;17.20;99.90;;;;;;4964543;29;20031;-79
2023/10/25 11:41:10;;;;;;;;;;;17.30;99.90;;;;;;4961349;28;20035;-79
2023/10/25 11:43:39;;;;;;;0.10;0.10;;;17.20;99.90;;;;;;4962360;29;20010;-80
2023/10/25 11:46:05;;;;;;;0.00;0.00;;;17.00;99.90;;;;;;4962170;28;20376;-79
2023/10/25 11:48:35;;;;;;;0.28;0.00;;;16.80;99.90;;;;;;4961188;29;20038;-79
2023/10/25 11:51:01;;;;;;;;;;;16.70;99.90;;;;;;4961514;28;20059;-78
2023/10/25 11:53:26;;;;;;;0.60;0.10;;;16.60;99.90;;;;;;4960502;28;19906;-78
2023/10/25 11:55:58;;;;;;;1.45;0.10;;;16.60;99.90;;;;;;4960343;29;20476;-78
2023/10/25 11:58:28;;;;;;;0.10;0.10;;;16.50;99.90;;;;;;4960976;28;20027;-78
2023/10/25 12:00:55;;;;;;;1.27;0.15;;;16.80;99.90;;;;;;4962304;28;20504;-78
2023/10/25 12:03:20;;;;;;;0.55;0.20;;;16.40;99.90;;;;;;4960452;29;20035;-78
2023/10/25 12:05:46;;;;;;;0.10;0.10;;;16.10;99.90;;;;;;4960566;29;20055;-78
2023/10/25 12:08:13;;;;;;;0.55;0.20;;;15.90;99.90;;;;;;4962538;29;20027;-77
2023/10/25 12:10:38;;;;;;;0.20;0.10;;;15.90;99.90;;;;;;4961825;29;20027;-78
2023/10/25 12:13:05;;;;;;;3.05;0.10;;;15.90;99.90;;;;;;4963567;29;20050;-78
2023/10/25 12:15:31;;;;;;;0.57;0.10;;;15.80;99.90;;;;;;4963509;28;20024;-78
2023/10/25 12:17:56;;;;;;;0.13;0.10;;;15.80;99.90;;;;;;4959677;29;20492;-78
2023/10/25 12:20:22;;;;;;;0.28;0.00;;;15.80;99.90;;;;;;4961903;29;20034;-78
2023/10/25 12:22:48;;;;;;;0.20;0.20;;;15.90;99.90;;;;;;4961195;28;20465;-77
2023/10/25 12:25:13;;;;;;;0.82;0.57;;;16.00;99.90;;;;;;4962458;28;20033;-78
2023/10/25 12:27:39;;;;;;;3.38;1.50;;;16.00;99.90;;;;;;4963075;29;20147;-78
2023/10/25 12:30:05;;;;;;;0.47;0.40;;;16.00;99.90;;;;;;4962529;29;20400;-78
2023/10/25 12:32:31;;;;;;;0.55;0.20;;;15.90;99.90;;;;;;4964007;28;20063;-77
2023/10/25 12:34:57;;;;;;;1.45;0.28;;;15.80;99.90;;;;;;4965052;29;20038;-81
2023/10/25 12:37:23;;;;;;;2.38;0.20;;;15.70;99.90;;;;;;4964226;29;20054;-79
2023/10/25 12:39:49;;;;;;;0.35;0.20;;;15.70;99.90;;;;;;4964100;28;20030;-78
2023/10/25 12:42:14;;;;;;;0.70;0.17;;;15.70;99.90;;;;;;4962708;29;20031;-77
2023/10/25 12:44:40;;;;;;;0.03;0.03;;;15.80;99.90;;;;;;4963805;29;20026;-77
2023/10/25 12:47:06;;;;;;;0.10;0.10;;;15.90;99.90;;;;;;4965844;29;20037;-78
2023/10/25 12:49:32;;;;;;;0.38;0.10;;;16.00;99.90;;;;;;4966230;28;20020;-77
2023/10/25 12:51:58;;;;;;;0.10;0.10;;;16.10;99.90;;;;;;4966683;29;20024;-78
2023/10/25 12:54:23;;;;;;;0.17;0.10;;;16.20;99.90;;;;;;4959638;28;20031;-78